sensor_id;sensor_type;location;lat;lon;timestamp;pressure;altitude;pressure_sealevel;temperature;humidity
81686;BME280;71102;50.960;6.888;2024-01-25T00:01:04;102414.28;;;9.44;78.70
81686;BME280;71102;50.960;6.888;2024-01-25T00:03:29;102415.34;;;9.49;78.85
81686;BME280;71102;50.960;6.888;2024-01-25T00:05:55;102407.63;;;9.55;78.35
81686;BME280;71102;50.960;6.888;2024-01-25T00:08:20;102407.09;;;9.40;79.11
81686;BME280;71102;50.960;6.888;2024-01-25T00:10:45;102417.78;;;9.43;78.98
81686;BME280;71102;50.960;6.888;2024-01-25T00:13:11;102414.00;;;9.37;79.22
81686;BME280;71102;50.960;6.888;2024-01-25T00:15:36;102421.69;;;9.29;80.01
81686;BME280;71102;50.960;6.888;2024-01-25T00:18:02;102409.00;;;9.44;79.41
81686;BME280;71102;50.960;6.888;2024-01-25T00:20:27;102411.53;;;9.41;79.40
81686;BME280;71102;50.960;6.888;2024-01-25T00:22:52;102413.50;;;9.47;79.31
81686;BME280;71102;50.960;6.888;2024-01-25T00:25:18;102412.56;;;9.45;79.19
81686;BME280;71102;50.960;6.888;2024-01-25T00:27:43;102414.22;;;9.43;79.43
81686;BME280;71102;50.960;6.888;2024-01-25T00:30:08;102408.88;;;9.41;79.64
81686;BME280;71102;50.960;6.888;2024-01-25T00:32:34;102422.28;;;9.46;79.36
81686;BME280;71102;50.960;6.888;2024-01-25T00:34:59;102411.34;;;9.37;79.77
81686;BME280;71102;50.960;6.888;2024-01-25T00:37:25;102413.19;;;9.38;79.55
81686;BME280;71102;50.960;6.888;2024-01-25T00:39:51;102401.81;;;9.40;79.50
81686;BME280;71102;50.960;6.888;2024-01-25T00:42:17;102412.38;;;9.40;79.75
81686;BME280;71102;50.960;6.888;2024-01-25T00:44:44;102407.28;;;9.45;79.63
81686;BME280;71102;50.960;6.888;2024-01-25T00:47:09;102413.25;;;9.41;79.65
81686;BME280;71102;50.960;6.888;2024-01-25T00:49:35;102417.38;;;9.33;79.84
81686;BME280;71102;50.960;6.888;2024-01-25T00:52:02;102420.25;;;9.39;80.01
81686;BME280;71102;50.960;6.888;2024-01-25T00:54:28;102428.94;;;9.35;80.26
81686;BME280;71102;50.960;6.888;2024-01-25T00:56:53;102432.16;;;9.26;80.35
81686;BME280;71102;50.960;6.888;2024-01-25T00:59:19;102425.25;;;9.31;80.60
81686;BME280;71102;50.960;6.888;2024-01-25T01:01:47;102432.75;;;9.19;80.81
81686;BME280;71102;50.960;6.888;2024-01-25T01:04:12;102423.13;;;9.21;80.81
81686;BME280;71102;50.960;6.888;2024-01-25T01:06:38;102437.94;;;9.16;80.93
81686;BME280;71102;50.960;6.888;2024-01-25T01:09:03;102447.41;;;9.11;80.90
81686;BME280;71102;50.960;6.888;2024-01-25T01:11:30;102432.34;;;9.09;81.14
81686;BME280;71102;50.960;6.888;2024-01-25T01:13:55;102412.03;;;9.08;81.03
81686;BME280;71102;50.960;6.888;2024-01-25T01:16:20;102435.41;;;8.97;81.74
81686;BME280;71102;50.960;6.888;2024-01-25T01:18:46;102450.53;;;9.01;81.25
81686;BME280;71102;50.960;6.888;2024-01-25T01:21:11;102452.25;;;8.99;81.14
81686;BME280;71102;50.960;6.888;2024-01-25T01:23:37;102458.13;;;8.92;81.85
81686;BME280;71102;50.960;6.888;2024-01-25T01:26:04;102452.91;;;8.94;81.69
81686;BME280;71102;50.960;6.888;2024-01-25T01:28:29;102445.72;;;8.91;81.43
81686;BME280;71102;50.960;6.888;2024-01-25T01:30:54;102457.63;;;8.80;82.23
81686;BME280;71102;50.960;6.888;2024-01-25T01:33:20;102443.22;;;8.72;82.49
81686;BME280;71102;50.960;6.888;2024-01-25T01:35:45;102450.44;;;8.76;82.42
81686;BME280;71102;50.960;6.888;2024-01-25T01:38:10;102451.03;;;8.69;82.40
81686;BME280;71102;50.960;6.888;2024-01-25T01:40:36;102444.03;;;8.71;82.49
81686;BME280;71102;50.960;6.888;2024-01-25T01:43:01;102444.34;;;8.79;82.09
81686;BME280;71102;50.960;6.888;2024-01-25T01:45:27;102454.81;;;8.76;82.24
81686;BME280;71102;50.960;6.888;2024-01-25T01:47:53;102453.66;;;8.69;82.13
81686;BME280;71102;50.960;6.888;2024-01-25T01:50:19;102446.81;;;8.74;81.99
81686;BME280;71102;50.960;6.888;2024-01-25T01:52:45;102451.03;;;8.69;82.11
81686;BME280;71102;50.960;6.888;2024-01-25T01:55:11;102450.84;;;8.65;82.25
81686;BME280;71102;50.960;6.888;2024-01-25T01:57:37;102455.47;;;8.70;81.97
81686;BME280;71102;50.960;6.888;2024-01-25T02:00:03;102439.34;;;8.64;82.17
81686;BME280;71102;50.960;6.888;2024-01-25T02:02:37;102454.19;;;8.61;82.59
81686;BME280;71102;50.960;6.888;2024-01-25T02:05:02;102454.84;;;8.55;82.60
81686;BME280;71102;50.960;6.888;2024-01-25T02:07:28;102458.09;;;8.70;82.17
81686;BME280;71102;50.960;6.888;2024-01-25T02:09:54;102460.00;;;8.52;82.76
81686;BME280;71102;50.960;6.888;2024-01-25T02:12:19;102461.06;;;8.35;83.45
81686;BME280;71102;50.960;6.888;2024-01-25T02:14:45;102472.13;;;8.47;82.82
81686;BME280;71102;50.960;6.888;2024-01-25T02:17:10;102482.09;;;8.54;82.56
81686;BME280;71102;50.960;6.888;2024-01-25T02:19:36;102474.06;;;8.51;82.61
81686;BME280;71102;50.960;6.888;2024-01-25T02:22:04;102474.09;;;8.53;82.76
81686;BME280;71102;50.960;6.888;2024-01-25T02:24:29;102473.94;;;8.48;83.23
81686;BME280;71102;50.960;6.888;2024-01-25T02:26:55;102490.47;;;8.44;83.27
81686;BME280;71102;50.960;6.888;2024-01-25T02:29:20;102494.75;;;8.41;82.93
81686;BME280;71102;50.960;6.888;2024-01-25T02:31:46;102498.16;;;8.38;83.38
81686;BME280;71102;50.960;6.888;2024-01-25T02:34:11;102503.44;;;8.38;83.35
81686;BME280;71102;50.960;6.888;2024-01-25T02:36:36;102503.44;;;8.38;83.60
81686;BME280;71102;50.960;6.888;2024-01-25T02:39:02;102503.44;;;8.38;83.42
81686;BME280;71102;50.960;6.888;2024-01-25T02:41:29;102505.38;;;8.42;83.14
81686;BME280;71102;50.960;6.888;2024-01-25T02:43:54;102502.16;;;8.49;83.17
81686;BME280;71102;50.960;6.888;2024-01-25T02:46:20;102511.97;;;8.31;83.72
81686;BME280;71102;50.960;6.888;2024-01-25T02:48:45;102514.16;;;8.41;83.57
81686;BME280;71102;50.960;6.888;2024-01-25T02:51:10;102521.16;;;8.41;83.54
81686;BME280;71102;50.960;6.888;2024-01-25T02:53:36;102508.47;;;8.32;83.49
81686;BME280;71102;50.960;6.888;2024-01-25T02:56:01;102517.81;;;8.24;84.42
81686;BME280;71102;50.960;6.888;2024-01-25T02:58:26;102515.19;;;8.24;84.25
81686;BME280;71102;50.960;6.888;2024-01-25T03:00:52;102524.03;;;8.26;84.72
81686;BME280;71102;50.960;6.888;2024-01-25T03:03:17;102523.16;;;8.26;84.54
81686;BME280;71102;50.960;6.888;2024-01-25T03:05:42;102514.19;;;8.22;84.63
81686;BME280;71102;50.960;6.888;2024-01-25T03:08:08;102513.75;;;8.13;85.07
81686;BME280;71102;50.960;6.888;2024-01-25T03:10:33;102509.03;;;8.06;85.65
81686;BME280;71102;50.960;6.888;2024-01-25T03:12:58;102496.69;;;8.05;86.24
81686;BME280;71102;50.960;6.888;2024-01-25T03:15:23;102500.31;;;8.07;85.39
81686;BME280;71102;50.960;6.888;2024-01-25T03:17:49;102497.59;;;8.06;85.73
81686;BME280;71102;50.960;6.888;2024-01-25T03:20:14;102497.91;;;8.13;85.56
81686;BME280;71102;50.960;6.888;2024-01-25T03:22:39;102493.19;;;8.06;85.74
81686;BME280;71102;50.960;6.888;2024-01-25T03:25:05;102487.66;;;8.00;86.09
81686;BME280;71102;50.960;6.888;2024-01-25T03:27:30;102491.78;;;7.93;86.19
81686;BME280;71102;50.960;6.888;2024-01-25T03:29:56;102492.91;;;7.98;86.22
81686;BME280;71102;50.960;6.888;2024-01-25T03:32:22;102488.91;;;8.08;86.06
81686;BME280;71102;50.960;6.888;2024-01-25T03:34:47;102490.13;;;7.95;86.20
81686;BME280;71102;50.960;6.888;2024-01-25T03:37:12;102484.63;;;7.91;86.28
81686;BME280;71102;50.960;6.888;2024-01-25T03:39:38;102490.88;;;7.93;86.21
81686;BME280;71102;50.960;6.888;2024-01-25T03:42:03;102490.34;;;8.01;86.64
81686;BME280;71102;50.960;6.888;2024-01-25T03:44:28;102499.91;;;7.98;85.76
81686;BME280;71102;50.960;6.888;2024-01-25T03:46:54;102501.41;;;7.93;86.26
81686;BME280;71102;50.960;6.888;2024-01-25T03:49:19;102503.81;;;7.87;86.71
81686;BME280;71102;50.960;6.888;2024-01-25T03:51:44;102508.84;;;8.01;86.04
81686;BME280;71102;50.960;6.888;2024-01-25T03:54:10;102513.66;;;7.91;86.84
81686;BME280;71102;50.960;6.888;2024-01-25T03:56:35;102514.75;;;7.96;86.54
81686;BME280;71102;50.960;6.888;2024-01-25T03:59:00;102502.34;;;7.93;86.16
81686;BME280;71102;50.960;6.888;2024-01-25T04:01:26;102507.75;;;7.96;86.46
81686;BME280;71102;50.960;6.888;2024-01-25T04:03:51;102515.31;;;7.89;86.69
81686;BME280;71102;50.960;6.888;2024-01-25T04:06:16;102514.19;;;8.03;85.68
81686;BME280;71102;50.960;6.888;2024-01-25T04:08:41;102520.88;;;7.95;86.52
81686;BME280;71102;50.960;6.888;2024-01-25T04:11:07;102517.81;;;7.86;86.41
81686;BME280;71102;50.960;6.888;2024-01-25T04:13:32;102534.22;;;7.79;86.58
81686;BME280;71102;50.960;6.888;2024-01-25T04:15:57;102530.19;;;7.68;87.25
81686;BME280;71102;50.960;6.888;2024-01-25T04:18:23;102532.22;;;7.54;87.80
81686;BME280;71102;50.960;6.888;2024-01-25T04:20:48;102535.59;;;7.52;87.99
81686;BME280;71102;50.960;6.888;2024-01-25T04:23:13;102537.03;;;7.63;87.87
81686;BME280;71102;50.960;6.888;2024-01-25T04:25:39;102533.53;;;7.64;87.25
81686;BME280;71102;50.960;6.888;2024-01-25T04:28:04;102536.88;;;7.60;87.28
81686;BME280;71102;50.960;6.888;2024-01-25T04:30:30;102552.16;;;7.67;87.50
81686;BME280;71102;50.960;6.888;2024-01-25T04:32:55;102534.00;;;7.74;87.19
81686;BME280;71102;50.960;6.888;2024-01-25T04:35:20;102551.84;;;7.61;87.10
81686;BME280;71102;50.960;6.888;2024-01-25T04:37:45;102560.34;;;7.73;86.75
81686;BME280;71102;50.960;6.888;2024-01-25T04:40:11;102568.94;;;7.69;86.87
81686;BME280;71102;50.960;6.888;2024-01-25T04:42:37;102562.84;;;7.70;86.42
81686;BME280;71102;50.960;6.888;2024-01-25T04:45:02;102550.78;;;7.57;87.07
81686;BME280;71102;50.960;6.888;2024-01-25T04:47:28;102552.03;;;7.46;87.84
81686;BME280;71102;50.960;6.888;2024-01-25T04:49:53;102546.16;;;7.52;88.23
81686;BME280;71102;50.960;6.888;2024-01-25T04:52:18;102552.41;;;7.54;88.02
81686;BME280;71102;50.960;6.888;2024-01-25T04:54:44;102546.56;;;7.42;88.45
81686;BME280;71102;50.960;6.888;2024-01-25T04:57:09;102546.56;;;7.42;87.98
81686;BME280;71102;50.960;6.888;2024-01-25T04:59:35;102538.56;;;7.40;88.15
81686;BME280;71102;50.960;6.888;2024-01-25T05:02:00;102541.97;;;7.38;88.20
81686;BME280;71102;50.960;6.888;2024-01-25T05:04:26;102541.16;;;7.39;87.72
81686;BME280;71102;50.960;6.888;2024-01-25T05:06:51;102545.59;;;7.40;87.43
81686;BME280;71102;50.960;6.888;2024-01-25T05:09:16;102553.50;;;7.40;87.87
81686;BME280;71102;50.960;6.888;2024-01-25T05:11:42;102545.66;;;7.41;87.31
81686;BME280;71102;50.960;6.888;2024-01-25T05:14:07;102554.84;;;7.32;87.78
81686;BME280;71102;50.960;6.888;2024-01-25T05:16:32;102545.38;;;7.35;87.38
81686;BME280;71102;50.960;6.888;2024-01-25T05:18:58;102558.19;;;7.28;87.74
81686;BME280;71102;50.960;6.888;2024-01-25T05:21:23;102561.66;;;7.27;87.65
81686;BME280;71102;50.960;6.888;2024-01-25T05:23:49;102560.91;;;7.29;87.86
81686;BME280;71102;50.960;6.888;2024-01-25T05:26:15;102557.78;;;7.38;86.88
81686;BME280;71102;50.960;6.888;2024-01-25T05:28:41;102552.50;;;7.19;88.10
81686;BME280;71102;50.960;6.888;2024-01-25T05:31:06;102554.91;;;7.14;87.89
81686;BME280;71102;50.960;6.888;2024-01-25T05:33:31;102554.84;;;7.13;87.81
81686;BME280;71102;50.960;6.888;2024-01-25T05:35:57;102546.09;;;7.14;87.74
81686;BME280;71102;50.960;6.888;2024-01-25T05:38:22;102541.81;;;7.16;87.65
81686;BME280;71102;50.960;6.888;2024-01-25T05:40:47;102546.16;;;6.98;88.76
81686;BME280;71102;50.960;6.888;2024-01-25T05:43:12;102539.56;;;6.88;88.83
81686;BME280;71102;50.960;6.888;2024-01-25T05:45:38;102542.88;;;7.02;88.72
81686;BME280;71102;50.960;6.888;2024-01-25T05:48:04;102541.06;;;7.01;88.32
81686;BME280;71102;50.960;6.888;2024-01-25T05:50:29;102541.44;;;7.08;87.13
81686;BME280;71102;50.960;6.888;2024-01-25T05:52:54;102540.91;;;6.98;87.90
81686;BME280;71102;50.960;6.888;2024-01-25T05:55:20;102539.72;;;7.09;88.19
81686;BME280;71102;50.960;6.888;2024-01-25T05:57:45;102547.31;;;7.03;87.96
81686;BME280;71102;50.960;6.888;2024-01-25T06:00:12;102545.59;;;6.86;89.35
81686;BME280;71102;50.960;6.888;2024-01-25T06:02:37;102556.78;;;6.99;87.65
81686;BME280;71102;50.960;6.888;2024-01-25T06:05:03;102559.34;;;6.98;87.71
81686;BME280;71102;50.960;6.888;2024-01-25T06:07:28;102562.88;;;6.81;88.04
81686;BME280;71102;50.960;6.888;2024-01-25T06:09:53;102568.03;;;6.78;87.80
81686;BME280;71102;50.960;6.888;2024-01-25T06:12:19;102564.88;;;6.85;87.91
81686;BME280;71102;50.960;6.888;2024-01-25T06:14:44;102568.69;;;6.91;87.72
81686;BME280;71102;50.960;6.888;2024-01-25T06:17:10;102566.75;;;6.87;87.99
81686;BME280;71102;50.960;6.888;2024-01-25T06:19:35;102567.19;;;6.79;87.74
81686;BME280;71102;50.960;6.888;2024-01-25T06:22:00;102578.25;;;6.72;88.13
81686;BME280;71102;50.960;6.888;2024-01-25T06:24:26;102577.22;;;6.86;87.50
81686;BME280;71102;50.960;6.888;2024-01-25T06:26:53;102586.91;;;6.87;87.54
81686;BME280;71102;50.960;6.888;2024-01-25T06:29:18;102586.25;;;6.73;87.75
81686;BME280;71102;50.960;6.888;2024-01-25T06:31:44;102587.91;;;6.89;86.49
81686;BME280;71102;50.960;6.888;2024-01-25T06:34:10;102595.13;;;6.93;87.22
81686;BME280;71102;50.960;6.888;2024-01-25T06:36:35;102593.97;;;6.88;86.29
81686;BME280;71102;50.960;6.888;2024-01-25T06:39:00;102591.16;;;6.83;86.91
81686;BME280;71102;50.960;6.888;2024-01-25T06:41:26;102596.63;;;6.70;86.97
81686;BME280;71102;50.960;6.888;2024-01-25T06:43:51;102598.19;;;6.49;88.36
81686;BME280;71102;50.960;6.888;2024-01-25T06:46:16;102596.78;;;6.40;88.52
81686;BME280;71102;50.960;6.888;2024-01-25T06:48:41;102591.00;;;6.47;88.59
81686;BME280;71102;50.960;6.888;2024-01-25T06:51:07;102589.69;;;6.55;88.25
81686;BME280;71102;50.960;6.888;2024-01-25T06:53:32;102603.81;;;6.57;87.80
81686;BME280;71102;50.960;6.888;2024-01-25T06:55:57;102601.56;;;6.64;88.69
81686;BME280;71102;50.960;6.888;2024-01-25T06:58:23;102612.97;;;6.47;88.73
81686;BME280;71102;50.960;6.888;2024-01-25T07:00:48;102603.16;;;6.61;88.13
81686;BME280;71102;50.960;6.888;2024-01-25T07:03:13;102616.75;;;6.52;88.10
81686;BME280;71102;50.960;6.888;2024-01-25T07:05:39;102608.19;;;6.56;88.45
81686;BME280;71102;50.960;6.888;2024-01-25T07:08:04;102602.84;;;6.55;88.21
81686;BME280;71102;50.960;6.888;2024-01-25T07:10:30;102611.00;;;6.59;87.46
81686;BME280;71102;50.960;6.888;2024-01-25T07:12:56;102609.25;;;6.60;86.61
81686;BME280;71102;50.960;6.888;2024-01-25T07:15:21;102612.28;;;6.67;85.20
81686;BME280;71102;50.960;6.888;2024-01-25T07:17:46;102621.81;;;6.65;84.67
81686;BME280;71102;50.960;6.888;2024-01-25T07:20:12;102619.59;;;6.57;85.87
81686;BME280;71102;50.960;6.888;2024-01-25T07:22:38;102621.28;;;6.55;85.78
81686;BME280;71102;50.960;6.888;2024-01-25T07:25:03;102620.38;;;6.54;84.54
81686;BME280;71102;50.960;6.888;2024-01-25T07:27:29;102623.44;;;6.46;84.19
81686;BME280;71102;50.960;6.888;2024-01-25T07:29:54;102624.03;;;6.40;83.39
81686;BME280;71102;50.960;6.888;2024-01-25T07:32:19;102615.78;;;6.34;83.00
81686;BME280;71102;50.960;6.888;2024-01-25T07:34:45;102624.44;;;6.32;84.12
81686;BME280;71102;50.960;6.888;2024-01-25T07:37:10;102625.28;;;6.31;84.61
81686;BME280;71102;50.960;6.888;2024-01-25T07:39:35;102629.22;;;6.23;87.22
81686;BME280;71102;50.960;6.888;2024-01-25T07:42:01;102632.78;;;6.23;85.27
81686;BME280;71102;50.960;6.888;2024-01-25T07:44:26;102639.06;;;6.27;86.37
81686;BME280;71102;50.960;6.888;2024-01-25T07:46:51;102637.28;;;6.26;85.10
81686;BME280;71102;50.960;6.888;2024-01-25T07:49:17;102633.34;;;6.18;87.14
81686;BME280;71102;50.960;6.888;2024-01-25T07:51:42;102629.06;;;6.20;88.14
81686;BME280;71102;50.960;6.888;2024-01-25T07:54:07;102629.13;;;6.21;88.92
81686;BME280;71102;50.960;6.888;2024-01-25T07:56:33;102628.09;;;6.34;87.43
81686;BME280;71102;50.960;6.888;2024-01-25T07:58:58;102633.81;;;6.43;84.71
81686;BME280;71102;50.960;6.888;2024-01-25T08:01:23;102642.63;;;6.43;84.69
81686;BME280;71102;50.960;6.888;2024-01-25T08:03:49;102640.06;;;6.45;83.90
81686;BME280;71102;50.960;6.888;2024-01-25T08:06:14;102639.22;;;6.46;85.14
81686;BME280;71102;50.960;6.888;2024-01-25T08:08:39;102640.31;;;6.49;84.60
81686;BME280;71102;50.960;6.888;2024-01-25T08:11:05;102647.78;;;6.58;85.32
81686;BME280;71102;50.960;6.888;2024-01-25T08:13:30;102652.53;;;6.65;84.64
81686;BME280;71102;50.960;6.888;2024-01-25T08:15:57;102651.69;;;6.66;84.70
81686;BME280;71102;50.960;6.888;2024-01-25T08:18:22;102659.31;;;6.77;84.99
81686;BME280;71102;50.960;6.888;2024-01-25T08:20:47;102647.50;;;6.87;84.26
81686;BME280;71102;50.960;6.888;2024-01-25T08:23:13;102647.00;;;6.94;84.99
81686;BME280;71102;50.960;6.888;2024-01-25T08:25:38;102643.16;;;7.05;84.98
81686;BME280;71102;50.960;6.888;2024-01-25T08:28:03;102648.88;;;7.14;85.10
81686;BME280;71102;50.960;6.888;2024-01-25T08:30:29;102646.72;;;7.23;84.66
81686;BME280;71102;50.960;6.888;2024-01-25T08:32:55;102647.84;;;7.28;84.11
81686;BME280;71102;50.960;6.888;2024-01-25T08:35:20;102640.22;;;7.34;84.22
81686;BME280;71102;50.960;6.888;2024-01-25T08:37:46;102649.31;;;7.40;84.17
81686;BME280;71102;50.960;6.888;2024-01-25T08:40:11;102651.31;;;7.44;84.69
81686;BME280;71102;50.960;6.888;2024-01-25T08:42:37;102645.34;;;7.48;84.51
81686;BME280;71102;50.960;6.888;2024-01-25T08:45:02;102651.00;;;7.56;84.55
81686;BME280;71102;50.960;6.888;2024-01-25T08:47:28;102641.63;;;7.62;83.79
81686;BME280;71102;50.960;6.888;2024-01-25T08:49:53;102638.22;;;7.65;83.67
81686;BME280;71102;50.960;6.888;2024-01-25T08:52:18;102641.16;;;7.71;83.62
81686;BME280;71102;50.960;6.888;2024-01-25T08:54:44;102638.88;;;7.78;84.15
81686;BME280;71102;50.960;6.888;2024-01-25T08:57:09;102640.06;;;7.85;84.07
81686;BME280;71102;50.960;6.888;2024-01-25T08:59:35;102634.28;;;7.93;84.45
81686;BME280;71102;50.960;6.888;2024-01-25T09:02:00;102639.09;;;8.02;84.07
81686;BME280;71102;50.960;6.888;2024-01-25T09:04:26;102639.53;;;8.11;83.75
81686;BME280;71102;50.960;6.888;2024-01-25T09:06:51;102634.63;;;8.20;84.16
81686;BME280;71102;50.960;6.888;2024-01-25T09:09:16;102633.22;;;8.27;83.99
81686;BME280;71102;50.960;6.888;2024-01-25T09:11:42;102626.47;;;8.33;84.05
81686;BME280;71102;50.960;6.888;2024-01-25T09:14:07;102627.88;;;8.25;83.54
81686;BME280;71102;50.960;6.888;2024-01-25T09:16:32;102630.97;;;8.36;83.52
81686;BME280;71102;50.960;6.888;2024-01-25T09:18:58;102638.44;;;8.25;83.34
81686;BME280;71102;50.960;6.888;2024-01-25T09:21:23;102627.94;;;8.27;83.47
81686;BME280;71102;50.960;6.888;2024-01-25T09:23:48;102628.00;;;8.28;83.75
81686;BME280;71102;50.960;6.888;2024-01-25T09:26:14;102629.47;;;8.41;83.31
81686;BME280;71102;50.960;6.888;2024-01-25T09:28:39;102636.16;;;8.53;82.71
81686;BME280;71102;50.960;6.888;2024-01-25T09:31:04;102653.00;;;8.55;82.57
81686;BME280;71102;50.960;6.888;2024-01-25T09:33:30;102657.72;;;8.62;82.26
81686;BME280;71102;50.960;6.888;2024-01-25T09:35:55;102669.66;;;8.73;81.77
81686;BME280;71102;50.960;6.888;2024-01-25T09:38:21;102657.28;;;8.72;81.40
81686;BME280;71102;50.960;6.888;2024-01-25T09:40:47;102649.88;;;8.84;80.98
81686;BME280;71102;50.960;6.888;2024-01-25T09:43:12;102652.50;;;8.84;81.36
81686;BME280;71102;50.960;6.888;2024-01-25T09:45:38;102654.56;;;8.91;80.89
81686;BME280;71102;50.960;6.888;2024-01-25T09:48:04;102664.78;;;8.82;81.22
81686;BME280;71102;50.960;6.888;2024-01-25T09:50:30;102667.91;;;8.94;81.20
81686;BME280;71102;50.960;6.888;2024-01-25T09:52:57;102669.47;;;8.89;81.04
81686;BME280;71102;50.960;6.888;2024-01-25T09:55:26;102662.00;;;8.79;81.08
81686;BME280;71102;50.960;6.888;2024-01-25T09:57:54;102673.72;;;8.65;81.11
81686;BME280;71102;50.960;6.888;2024-01-25T10:00:20;102682.31;;;8.61;80.97
81686;BME280;71102;50.960;6.888;2024-01-25T10:02:47;102680.28;;;8.75;80.77
81686;BME280;71102;50.960;6.888;2024-01-25T10:05:13;102682.34;;;8.82;80.27
81686;BME280;71102;50.960;6.888;2024-01-25T10:07:43;102676.94;;;8.79;80.39
81686;BME280;71102;50.960;6.888;2024-01-25T10:10:10;102679.38;;;8.74;80.68
81686;BME280;71102;50.960;6.888;2024-01-25T10:12:37;102676.97;;;8.99;80.02
81686;BME280;71102;50.960;6.888;2024-01-25T10:15:03;102671.34;;;8.92;80.09
81686;BME280;71102;50.960;6.888;2024-01-25T10:17:29;102667.72;;;8.90;79.67
81686;BME280;71102;50.960;6.888;2024-01-25T10:19:54;102654.44;;;8.88;79.76
81686;BME280;71102;50.960;6.888;2024-01-25T10:22:19;102650.06;;;9.09;78.92
81686;BME280;71102;50.960;6.888;2024-01-25T10:24:45;102657.22;;;9.12;78.34
81686;BME280;71102;50.960;6.888;2024-01-25T10:27:10;102670.31;;;9.29;78.44
81686;BME280;71102;50.960;6.888;2024-01-25T10:29:36;102670.66;;;9.16;78.59
81686;BME280;71102;50.960;6.888;2024-01-25T10:32:06;102667.94;;;9.15;78.27
81686;BME280;71102;50.960;6.888;2024-01-25T10:34:35;102664.25;;;9.11;78.28
81686;BME280;71102;50.960;6.888;2024-01-25T10:37:00;102671.66;;;9.40;77.57
81686;BME280;71102;50.960;6.888;2024-01-25T10:39:27;102667.22;;;9.61;76.42
81686;BME280;71102;50.960;6.888;2024-01-25T10:41:54;102658.06;;;9.75;76.28
81686;BME280;71102;50.960;6.888;2024-01-25T10:44:21;102644.72;;;9.72;76.02
81686;BME280;71102;50.960;6.888;2024-01-25T10:46:49;102635.44;;;9.61;76.29
81686;BME280;71102;50.960;6.888;2024-01-25T10:49:16;102635.75;;;9.69;75.20
81686;BME280;71102;50.960;6.888;2024-01-25T10:51:41;102634.00;;;9.91;75.33
81686;BME280;71102;50.960;6.888;2024-01-25T10:54:12;102631.22;;;9.88;75.18
81686;BME280;71102;50.960;6.888;2024-01-25T10:56:41;102633.16;;;9.92;75.24
81686;BME280;71102;50.960;6.888;2024-01-25T10:59:07;102635.81;;;9.70;75.29
81686;BME280;71102;50.960;6.888;2024-01-25T11:01:33;102629.88;;;9.99;74.58
81686;BME280;71102;50.960;6.888;2024-01-25T11:03:59;102630.63;;;9.95;74.53
81686;BME280;71102;50.960;6.888;2024-01-25T11:06:26;102618.44;;;10.00;74.06
81686;BME280;71102;50.960;6.888;2024-01-25T11:09:03;102616.28;;;10.12;73.84
81686;BME280;71102;50.960;6.888;2024-01-25T11:11:30;102603.09;;;10.14;73.71
81686;BME280;71102;50.960;6.888;2024-01-25T11:13:56;102596.44;;;10.01;73.30
81686;BME280;71102;50.960;6.888;2024-01-25T11:16:31;102602.34;;;9.94;73.22
81686;BME280;71102;50.960;6.888;2024-01-25T11:18:58;102600.97;;;9.82;72.90
81686;BME280;71102;50.960;6.888;2024-01-25T11:21:43;102598.22;;;10.24;72.72
81686;BME280;71102;50.960;6.888;2024-01-25T11:24:16;102583.00;;;10.44;71.68
81686;BME280;71102;50.960;6.888;2024-01-25T11:26:44;102579.75;;;10.78;71.07
81686;BME280;71102;50.960;6.888;2024-01-25T11:29:13;102573.47;;;10.74;70.53
81686;BME280;71102;50.960;6.888;2024-01-25T11:31:38;102587.56;;;10.73;69.58
81686;BME280;71102;50.960;6.888;2024-01-25T11:34:03;102581.38;;;10.99;68.61
81686;BME280;71102;50.960;6.888;2024-01-25T11:36:29;102581.56;;;11.32;68.24
81686;BME280;71102;50.960;6.888;2024-01-25T11:38:54;102573.44;;;11.54;67.27
81686;BME280;71102;50.960;6.888;2024-01-25T11:41:20;102556.00;;;11.62;67.47
81686;BME280;71102;50.960;6.888;2024-01-25T11:43:48;102564.56;;;11.25;68.05
81686;BME280;71102;50.960;6.888;2024-01-25T11:46:13;102567.16;;;11.52;66.48
81686;BME280;71102;50.960;6.888;2024-01-25T11:48:40;102564.31;;;11.46;65.78
81686;BME280;71102;50.960;6.888;2024-01-25T11:51:05;102567.22;;;11.25;65.50
81686;BME280;71102;50.960;6.888;2024-01-25T11:53:30;102561.75;;;11.77;64.70
81686;BME280;71102;50.960;6.888;2024-01-25T11:55:56;102552.09;;;11.79;63.49
81686;BME280;71102;50.960;6.888;2024-01-25T11:58:22;102545.53;;;11.66;64.17
81686;BME280;71102;50.960;6.888;2024-01-25T12:00:48;102545.81;;;11.77;63.53
81686;BME280;71102;50.960;6.888;2024-01-25T12:03:14;102532.56;;;12.08;63.60
81686;BME280;71102;50.960;6.888;2024-01-25T12:05:40;102535.09;;;12.03;61.85
81686;BME280;71102;50.960;6.888;2024-01-25T12:08:09;102536.16;;;12.10;62.26
81686;BME280;71102;50.960;6.888;2024-01-25T12:10:37;102535.97;;;11.45;63.83
81686;BME280;71102;50.960;6.888;2024-01-25T12:13:03;102537.41;;;11.91;62.02
81686;BME280;71102;50.960;6.888;2024-01-25T12:15:28;102537.16;;;12.46;61.00
81686;BME280;71102;50.960;6.888;2024-01-25T12:17:53;102543.28;;;12.76;60.24
81686;BME280;71102;50.960;6.888;2024-01-25T12:20:19;102535.88;;;12.64;60.22
81686;BME280;71102;50.960;6.888;2024-01-25T12:22:48;102532.91;;;12.88;60.56
81686;BME280;71102;50.960;6.888;2024-01-25T12:25:13;102536.13;;;12.75;60.51
81686;BME280;71102;50.960;6.888;2024-01-25T12:27:39;102522.50;;;12.97;59.59
81686;BME280;71102;50.960;6.888;2024-01-25T12:30:05;102503.81;;;13.31;58.57
81686;BME280;71102;50.960;6.888;2024-01-25T12:32:31;102496.56;;;13.64;57.48
81686;BME280;71102;50.960;6.888;2024-01-25T12:35:00;102490.22;;;14.02;57.40
81686;BME280;71102;50.960;6.888;2024-01-25T12:37:26;102510.06;;;13.73;56.23
81686;BME280;71102;50.960;6.888;2024-01-25T12:39:52;102510.38;;;13.47;57.18
81686;BME280;71102;50.960;6.888;2024-01-25T12:42:19;102509.66;;;12.79;58.53
81686;BME280;71102;50.960;6.888;2024-01-25T12:44:44;102510.69;;;12.84;59.62
81686;BME280;71102;50.960;6.888;2024-01-25T12:47:10;102492.63;;;12.71;59.97
81686;BME280;71102;50.960;6.888;2024-01-25T12:49:35;102499.00;;;13.15;58.82
81686;BME280;71102;50.960;6.888;2024-01-25T12:52:00;102494.00;;;12.91;59.36